»·PEaware :: N6013C KFXE-KDAB

N6013C :: KFXE-KDAB

FLIGHT INFORMATION

Flight Status: Arrived
Operator: Privately registered:
United States
More flights under this callsign
Pilot: Ulli W. (2180)
Aircraft: SOCATA TBM-850
(TBM8)
More flights by this aircraft type
Origin: KFXE Ft Lauderdale Executive
United States
Destination: KDAB Daytona Beach Intl
United States
More flights between these airports :: More routes between these airports
Route: KMLB
File this flight plan on PilotEdge
Remarks:
Altitude:
(Current/Filed)
2,500ft
Speed:
(Current/Filed)
210kts
Departed: 12-Sep-15 08:18 AM
Arrived: 12-Sep-15 09:38 AM
Distance/Time
Traveled:
185nm/1:20
Distance/Time
To Go:
Arrived

Flight Plot

Page will automatically refresh every two minutes.


Map Options




Map Legend


Flown Route
Filed Route
Departure Airport
Arrival Airport
Navaid (VOR, NDB)
Fix

Horizontal Profiles

Position Reports

Time Latitude Longitude Heading Altitude Ground
Speed
12-Sep-15 08:29 26.193190 -80.168109 22 17ft 6kts
12-Sep-15 08:30 26.191754 -80.165033 112 17ft 6kts
12-Sep-15 08:30 26.191990 -80.164629 40 18ft 0kts
12-Sep-15 08:31 26.199116 -80.174066 306 124ft 138kts
12-Sep-15 08:33 26.254873 -80.181410 359 1016ft 220kts
12-Sep-15 08:33 26.305333 -80.187652 346 1011ft 221kts
12-Sep-15 08:34 26.365547 -80.202321 345 1011ft 221kts
12-Sep-15 08:35 26.425665 -80.216982 346 1010ft 221kts
12-Sep-15 08:36 26.485141 -80.231478 346 1697ft 211kts
12-Sep-15 08:37 26.539904 -80.247593 342 3868ft 200kts
12-Sep-15 08:38 26.595681 -80.264137 342 4975ft 234kts
12-Sep-15 08:39 26.658798 -80.283096 342 4662ft 234kts
12-Sep-15 08:40 26.720851 -80.301797 342 4409ft 232kts
12-Sep-15 08:41 26.783562 -80.319597 344 4409ft 232kts
12-Sep-15 08:42 26.846710 -80.335754 350 4409ft 233kts
12-Sep-15 08:43 26.911162 -80.344632 350 4409ft 233kts
12-Sep-15 08:44 26.975423 -80.353963 350 4411ft 233kts
12-Sep-15 08:45 27.039551 -80.364766 347 4409ft 233kts
12-Sep-15 08:46 27.103389 -80.377823 347 4410ft 233kts
12-Sep-15 08:47 27.167039 -80.390863 347 4410ft 233kts
12-Sep-15 08:48 27.229999 -80.403774 347 4410ft 233kts
12-Sep-15 08:49 27.293613 -80.416833 347 4410ft 233kts
12-Sep-15 08:50 27.355791 -80.429610 347 4409ft 233kts
12-Sep-15 08:51 27.419030 -80.442618 347 4410ft 233kts
12-Sep-15 08:52 27.482784 -80.455745 347 4409ft 233kts
12-Sep-15 08:53 27.546401 -80.468675 349 4410ft 233kts
12-Sep-15 08:54 27.609694 -80.474859 352 4410ft 233kts
12-Sep-15 08:55 27.673856 -80.485249 337 4401ft 232kts
12-Sep-15 08:56 27.732059 -80.515826 331 4409ft 231kts
12-Sep-15 08:57 27.789247 -80.548884 330 4412ft 231kts
12-Sep-15 08:58 27.845436 -80.583450 328 4411ft 230kts
12-Sep-15 08:59 27.900845 -80.620177 326 4414ft 230kts
12-Sep-15 09:00 27.955700 -80.657550 327 3998ft 230kts
12-Sep-15 09:02 28.009701 -80.693954 328 2104ft 222kts
12-Sep-15 09:03 28.063033 -80.728476 329 1510ft 220kts
12-Sep-15 09:04 28.096834 -80.777790 269 1513ft 214kts
12-Sep-15 09:05 28.094045 -80.844979 264 1509ft 214kts
12-Sep-15 09:06 28.056603 -80.895203 224 1510ft 212kts
12-Sep-15 09:07 28.072559 -80.938460 14 1504ft 225kts
12-Sep-15 09:08 28.089740 -80.875909 89 1509ft 224kts
12-Sep-15 09:09 28.093667 -80.807834 87 1506ft 202kts
12-Sep-15 09:10 28.096947 -80.748792 88 1477ft 170kts
12-Sep-15 09:11 28.101048 -80.639254 310 38ft 0kts
12-Sep-15 09:12 28.094705 -80.798723 88 1516ft 214kts
12-Sep-15 09:13 28.097576 -80.738562 88 1317ft 154kts
12-Sep-15 09:14 28.099502 -80.698312 89 728ft 123kts
12-Sep-15 09:15 28.101299 -80.661257 89 65ft 98kts
12-Sep-15 09:16 28.100658 -80.647704 224 38ft 19kts
12-Sep-15 09:17 28.100367 -80.653369 265 38ft 4kts
12-Sep-15 09:18 28.100060 -80.657219 263 38ft 20kts
12-Sep-15 09:19 28.100202 -80.660900 336 38ft 0kts
12-Sep-15 09:20 28.100202 -80.660900 336 38ft 0kts
12-Sep-15 09:21 28.101946 -80.646928 87 38ft 159kts
12-Sep-15 09:22 28.122675 -80.611750 341 1811ft 151kts
12-Sep-15 09:23 28.160413 -80.629683 331 4302ft 149kts
12-Sep-15 09:24 28.198750 -80.649167 331 6416ft 174kts
12-Sep-15 09:25 28.249478 -80.676132 331 6412ft 222kts
12-Sep-15 09:26 28.306350 -80.706551 331 6398ft 219kts
12-Sep-15 09:27 28.360794 -80.735885 331 6405ft 215kts
12-Sep-15 09:28 28.414824 -80.764983 331 6405ft 215kts
12-Sep-15 09:29 28.469001 -80.794168 331 6405ft 215kts
12-Sep-15 09:30 28.524786 -80.818850 339 6405ft 217kts
12-Sep-15 09:31 28.581294 -80.839069 339 6403ft 217kts
12-Sep-15 09:32 28.638453 -80.860942 336 6405ft 216kts
12-Sep-15 09:33 28.694391 -80.885860 335 6404ft 216kts
12-Sep-15 09:34 28.750666 -80.910559 337 6409ft 216kts
12-Sep-15 09:34 28.797518 -80.930640 337 6409ft 216kts
12-Sep-15 09:36 28.862605 -80.957105 341 6409ft 217kts
12-Sep-15 09:37 28.920970 -80.978008 341 6409ft 217kts
12-Sep-15 09:37 28.969001 -80.995213 341 6409ft 217kts
12-Sep-15 09:38 29.012205 -80.962234 60 6404ft 222kts
12-Sep-15 09:39 29.047913 -80.911243 47 6407ft 199kts
12-Sep-15 09:40 29.087338 -80.866531 43 6154ft 208kts
12-Sep-15 09:41 29.134296 -80.829401 31 5161ft 206kts
12-Sep-15 09:42 29.185403 -80.799472 22 3821ft 202kts
12-Sep-15 09:43 29.237106 -80.778118 15 2704ft 186kts
12-Sep-15 09:44 29.274182 -80.790837 280 2709ft 151kts
12-Sep-15 09:45 29.269790 -80.834601 245 2710ft 146kts
12-Sep-15 09:46 29.253657 -80.875642 245 2709ft 147kts
12-Sep-15 09:47 29.237433 -80.916466 245 2505ft 146kts
12-Sep-15 09:48 29.220275 -80.959380 245 1729ft 149kts
12-Sep-15 09:49 29.202909 -81.002577 245 921ft 149kts
12-Sep-15 09:50 29.185635 -81.044368 242 146ft 117kts
12-Sep-15 09:51 29.179768 -81.060190 255 38ft 21kts
12-Sep-15 09:52 29.183839 -81.061078 32 39ft 0kts
12-Sep-15 09:53 29.183839 -81.061078 32 39ft 0kts
12-Sep-15 09:54 29.183839 -81.061078 32 39ft 0kts
12-Sep-15 09:55 29.183839 -81.061078 32 39ft 0kts
12-Sep-15 09:56 29.183839 -81.061078 32 39ft 0kts
12-Sep-15 09:57 29.183839 -81.061078 32 39ft 0kts
12-Sep-15 09:58 29.183839 -81.061078 32 39ft 0kts

Navigation Log

Ident Type
Flight plan parsing failed, navigation log unavailable